Time;durP1;ratioP1;P1;durP2;ratioP2;P2;SDS_P1;SDS_P2;PMS_P1;PMS_P2;Temp;Humidity;BMP_temperature;BMP_pressure;BME280_temperature;BME280_humidity;BME280_pressure;Samples;Min_cycle;Max_cycle;Signal;HPM_P1;HPM_P2
2024/01/15 00:00:21;;;;;;;35.20;23.33;;;;;;;-0.76;57.58;94341.63;5049449;28;20218;-74
2024/01/15 00:02:47;;;;;;;40.27;27.20;;;;;;;-0.75;57.57;94338.97;5069475;28;20222;-75
2024/01/15 00:05:12;;;;;;;37.27;23.00;;;;;;;-0.72;57.49;94330.19;5051936;28;20189;-75
2024/01/15 00:07:38;;;;;;;39.50;26.73;;;;;;;-0.88;57.88;94322.63;5052031;28;20177;-74
2024/01/15 00:10:06;;;;;;;42.93;24.83;;;;;;;-0.83;58.21;94323.13;5066735;28;20351;-75
2024/01/15 00:12:32;;;;;;;38.27;26.20;;;;;;;-0.78;57.96;94317.66;5051710;28;20221;-74
2024/01/15 00:14:57;;;;;;;40.33;25.63;;;;;;;-0.67;57.58;94325.53;5049795;28;20213;-78
2024/01/15 00:17:23;;;;;;;38.90;26.57;;;;;;;-0.66;57.56;94314.28;5053743;28;20187;-78
2024/01/15 00:19:48;;;;;;;35.43;25.27;;;;;;;-0.86;58.00;94319.91;5051946;28;20280;-78
2024/01/15 00:22:14;;;;;;;38.70;25.43;;;;;;;-0.81;57.94;94325.59;5052107;28;20225;-78
2024/01/15 00:24:39;;;;;;;40.67;25.93;;;;;;;-0.73;58.11;94323.34;5049267;28;20220;-78
2024/01/15 00:27:04;;;;;;;43.60;27.07;;;;;;;-0.77;57.79;94327.06;5067558;28;20220;-78
2024/01/15 00:29:30;;;;;;;41.27;26.87;;;;;;;-0.71;57.84;94327.50;5049732;28;20242;-78
2024/01/15 00:31:55;;;;;;;37.97;25.20;;;;;;;-0.85;57.97;94321.59;5052226;28;20186;-79
2024/01/15 00:34:21;;;;;;;40.27;26.17;;;;;;;-0.91;57.96;94318.47;5052271;28;20221;-78
2024/01/15 00:36:46;;;;;;;36.97;26.17;;;;;;;-0.74;57.82;94321.72;5069731;28;20747;-78
2024/01/15 00:39:12;;;;;;;41.57;27.23;;;;;;;-0.89;58.19;94324.34;5051111;28;20221;-78
2024/01/15 00:41:37;;;;;;;42.20;27.87;;;;;;;-0.91;58.21;94325.38;5052463;28;20229;-78
2024/01/15 00:44:03;;;;;;;36.50;25.00;;;;;;;-0.86;58.15;94327.66;5054448;28;20193;-77
2024/01/15 00:46:28;;;;;;;37.90;26.80;;;;;;;-0.75;57.69;94323.47;5051907;28;20293;-78
2024/01/15 00:48:54;;;;;;;43.17;27.97;;;;;;;-0.85;57.87;94319.00;5046118;28;20217;-78
2024/01/15 00:51:19;;;;;;;39.80;25.60;;;;;;;-0.83;58.01;94322.28;5049015;28;20213;-78
2024/01/15 00:53:45;;;;;;;35.87;26.00;;;;;;;-1.06;58.49;94318.66;5052354;28;20223;-78
2024/01/15 00:56:10;;;;;;;37.73;26.33;;;;;;;-0.94;58.15;94318.66;5069072;28;20273;-78
2024/01/15 00:58:36;;;;;;;41.37;26.80;;;;;;;-1.01;58.36;94316.59;5051261;28;20226;-78
2024/01/15 01:01:01;;;;;;;38.73;26.27;;;;;;;-0.98;57.81;94321.56;5048035;28;20235;-78
2024/01/15 01:03:27;;;;;;;37.37;25.97;;;;;;;-1.13;58.87;94320.78;5051917;28;20305;-79
2024/01/15 01:05:52;;;;;;;39.97;25.27;;;;;;;-0.90;58.14;94321.88;5052985;28;20302;-78
2024/01/15 01:08:17;;;;;;;36.27;25.90;;;;;;;-1.03;58.65;94327.00;5066961;28;20239;-77
2024/01/15 01:10:43;;;;;;;39.00;27.10;;;;;;;-0.95;58.34;94316.19;5045643;28;20193;-78
2024/01/15 01:13:09;;;;;;;37.33;25.57;;;;;;;-0.91;57.93;94309.88;5049618;28;20225;-79
2024/01/15 01:15:34;;;;;;;40.57;26.90;;;;;;;-0.87;58.28;94318.28;5048295;28;20276;-79
2024/01/15 01:18:00;;;;;;;41.80;27.70;;;;;;;-0.89;58.14;94310.63;5052515;28;20283;-79
2024/01/15 01:20:25;;;;;;;40.40;26.50;;;;;;;-1.02;58.25;94320.91;5052042;28;20231;-78
2024/01/15 01:22:51;;;;;;;43.73;28.07;;;;;;;-1.23;58.95;94307.66;5050637;28;20199;-79
2024/01/15 01:25:16;;;;;;;42.33;28.80;;;;;;;-1.13;58.83;94307.88;5051325;28;20221;-78
2024/01/15 01:27:42;;;;;;;41.27;27.20;;;;;;;-0.97;58.68;94305.97;5052212;28;20225;-79
2024/01/15 01:30:08;;;;;;;43.23;30.03;;;;;;;-0.96;58.15;94309.38;5051394;28;20255;-78
2024/01/15 01:32:34;;;;;;;42.97;28.37;;;;;;;-1.13;58.40;94300.97;5053339;28;20227;-79
2024/01/15 01:34:59;;;;;;;41.60;29.30;;;;;;;-0.93;57.70;94299.69;5053528;28;20272;-78
2024/01/15 01:37:25;;;;;;;39.67;27.80;;;;;;;-0.98;58.24;94298.34;5049757;28;20225;-78
2024/01/15 01:39:50;;;;;;;39.27;27.60;;;;;;;-1.00;58.09;94293.25;5050922;28;20220;-78
2024/01/15 01:42:16;;;;;;;39.23;27.50;;;;;;;-0.97;57.83;94282.72;5050242;28;20217;-78
2024/01/15 01:44:41;;;;;;;43.83;27.53;;;;;;;-0.95;58.40;94292.97;5051669;28;20213;-78
2024/01/15 01:47:07;;;;;;;37.80;27.27;;;;;;;-0.97;58.22;94297.38;5051922;28;20188;-78
2024/01/15 01:49:35;;;;;;;41.80;27.73;;;;;;;-1.07;58.55;94297.16;5053371;28;20217;-79
2024/01/15 01:52:03;;;;;;;35.83;25.97;;;;;;;-1.13;58.45;94303.53;5050511;28;20225;-78
2024/01/15 01:54:31;;;;;;;37.47;26.43;;;;;;;-1.20;58.31;94298.91;5049734;28;20228;-79
2024/01/15 01:56:57;;;;;;;34.53;25.77;;;;;;;-1.16;58.64;94293.41;5051894;28;20248;-79
2024/01/15 01:59:25;;;;;;;36.83;26.67;;;;;;;-1.22;58.76;94287.84;5042639;28;20212;-78
2024/01/15 02:01:51;;;;;;;35.47;23.63;;;;;;;-1.16;58.42;94287.44;5055240;28;20209;-79
2024/01/15 02:04:17;;;;;;;36.03;24.87;;;;;;;-1.27;58.81;94277.00;5053983;28;20213;-79
2024/01/15 02:06:42;;;;;;;34.43;24.23;;;;;;;-1.21;58.53;94274.84;5050815;28;20268;-79
2024/01/15 02:09:09;;;;;;;37.87;25.13;;;;;;;-1.21;58.72;94279.16;5056569;28;20218;-78
2024/01/15 02:11:35;;;;;;;38.03;24.30;;;;;;;-1.17;58.17;94275.47;5055787;28;20228;-79
2024/01/15 02:14:04;;;;;;;33.27;22.63;;;;;;;-1.13;58.35;94275.16;5054879;28;20269;-79
2024/01/15 02:16:30;;;;;;;32.30;22.83;;;;;;;-0.93;57.58;94268.72;5050165;28;20217;-79
2024/01/15 02:18:56;;;;;;;32.33;21.83;;;;;;;-0.93;57.15;94267.88;5053076;28;20248;-79
2024/01/15 02:21:21;;;;;;;29.47;20.20;;;;;;;-1.02;57.84;94256.41;5069905;28;20222;-79
2024/01/15 02:23:47;;;;;;;33.87;21.53;;;;;;;-1.13;57.64;94246.78;5051945;28;20248;-78
2024/01/15 02:26:12;;;;;;;26.57;19.13;;;;;;;-1.07;57.48;94234.41;5053727;28;20185;-77
2024/01/15 02:28:38;;;;;;;28.60;20.07;;;;;;;-1.07;57.57;94232.66;5056166;28;20184;-78
2024/01/15 02:31:03;;;;;;;33.30;19.67;;;;;;;-0.98;57.09;94211.41;5054332;28;20232;-78
2024/01/15 02:33:29;;;;;;;29.90;18.53;;;;;;;-1.14;57.49;94214.19;5071515;28;20309;-78
2024/01/15 02:35:54;;;;;;;28.27;19.40;;;;;;;-1.14;57.66;94211.59;5055222;28;20217;-79
2024/01/15 02:38:20;;;;;;;29.93;19.27;;;;;;;-1.10;57.92;94219.97;5054306;28;20193;-79
2024/01/15 02:40:45;;;;;;;26.40;17.60;;;;;;;-1.02;57.53;94209.94;5055269;28;20320;-79
2024/01/15 02:43:11;;;;;;;27.23;17.97;;;;;;;-1.05;58.15;94217.91;5053761;28;20248;-79
2024/01/15 02:45:37;;;;;;;29.13;18.87;;;;;;;-1.00;57.82;94213.25;5049339;28;20248;-79
2024/01/15 02:48:02;;;;;;;23.83;16.37;;;;;;;-0.83;57.44;94209.53;5054961;28;20221;-79
2024/01/15 02:50:28;;;;;;;25.90;18.20;;;;;;;-0.97;57.24;94207.91;5055050;28;20174;-79
2024/01/15 02:52:53;;;;;;;26.57;18.90;;;;;;;-0.87;57.26;94209.88;5053246;28;20192;-79
2024/01/15 02:55:19;;;;;;;26.03;17.33;;;;;;;-0.95;57.68;94211.22;5051775;28;20236;-79
2024/01/15 02:57:45;;;;;;;29.93;18.23;;;;;;;-1.09;57.71;94219.03;5052579;28;20320;-79
2024/01/15 03:00:11;;;;;;;31.47;20.97;;;;;;;-1.24;58.16;94204.56;5053179;28;20217;-79
2024/01/15 03:02:40;;;;;;;30.90;21.30;;;;;;;-1.30;58.25;94207.56;5054491;28;20253;-79
2024/01/15 03:05:09;;;;;;;33.40;21.90;;;;;;;-1.49;58.74;94207.94;5052245;28;20181;-79
2024/01/15 03:07:35;;;;;;;35.20;23.83;;;;;;;-1.45;58.63;94210.19;5054501;28;20217;-79
2024/01/15 03:10:01;;;;;;;34.33;23.13;;;;;;;-1.41;58.55;94200.53;5055267;28;20217;-79
2024/01/15 03:12:27;;;;;;;34.23;23.40;;;;;;;-1.33;58.52;94208.59;5051101;28;20221;-79
2024/01/15 03:14:52;;;;;;;33.83;22.23;;;;;;;-1.28;58.41;94201.38;5055000;28;20224;-79
2024/01/15 03:17:18;;;;;;;32.00;23.47;;;;;;;-1.22;58.55;94200.16;5053201;28;20177;-78
2024/01/15 03:19:43;;;;;;;32.17;23.67;;;;;;;-1.29;58.63;94198.88;5051363;28;20228;-78
2024/01/15 03:22:09;;;;;;;34.13;23.23;;;;;;;-1.20;58.33;94203.47;5051572;28;20313;-79
2024/01/15 03:24:35;;;;;;;34.53;21.83;;;;;;;-1.15;58.88;94203.94;5055064;28;20213;-79
2024/01/15 03:27:01;;;;;;;39.70;25.10;;;;;;;-1.28;58.58;94197.94;5052632;28;20217;-79
2024/01/15 03:29:27;;;;;;;34.77;24.30;;;;;;;-1.22;58.72;94190.66;5050471;28;20273;-79
2024/01/15 03:31:52;;;;;;;35.30;22.63;;;;;;;-1.15;59.06;94183.31;5059818;28;20180;-79
2024/01/15 03:34:18;;;;;;;34.10;21.37;;;;;;;-1.07;58.61;94188.78;5052015;28;20213;-80
2024/01/15 03:36:43;;;;;;;37.30;24.37;;;;;;;-1.04;58.70;94178.28;5053845;28;20230;-79
2024/01/15 03:39:09;;;;;;;39.83;24.50;;;;;;;-0.94;58.67;94188.81;5049495;28;20289;-79
2024/01/15 03:41:34;;;;;;;37.17;24.37;;;;;;;-0.95;58.25;94169.09;5055407;28;20240;-78
2024/01/15 03:44:00;;;;;;;37.63;26.93;;;;;;;-1.01;58.88;94177.25;5045976;28;20194;-78
2024/01/15 03:46:25;;;;;;;38.17;26.97;;;;;;;-0.87;58.17;94178.91;5052557;28;20241;-79
2024/01/15 03:48:51;;;;;;;34.87;22.47;;;;;;;-0.94;58.34;94181.06;5053633;28;20240;-79
2024/01/15 03:51:19;;;;;;;39.67;23.43;;;;;;;-0.97;58.25;94194.16;5054725;28;20300;-79
2024/01/15 03:53:45;;;;;;;38.17;25.33;;;;;;;-1.11;58.59;94187.34;5053803;28;20222;-79
2024/01/15 03:56:10;;;;;;;38.87;27.17;;;;;;;-0.96;58.14;94183.75;5052876;28;20189;-78
2024/01/15 03:58:36;;;;;;;39.10;24.03;;;;;;;-1.03;58.08;94189.44;5048798;28;20237;-80
2024/01/15 04:01:01;;;;;;;37.43;27.83;;;;;;;-1.20;58.70;94190.56;5050864;28;20225;-79
2024/01/15 04:03:26;;;;;;;42.27;28.40;;;;;;;-1.56;59.87;94179.13;5053214;28;20213;-79
2024/01/15 04:05:52;;;;;;;39.83;24.70;;;;;;;-1.32;59.58;94184.44;5051867;28;20209;-79
2024/01/15 04:08:17;;;;;;;39.00;25.73;;;;;;;-1.30;59.13;94172.28;5053001;28;20188;-78
2024/01/15 04:10:43;;;;;;;36.77;25.33;;;;;;;-1.17;59.14;94170.53;5053503;28;20691;-79
2024/01/15 04:13:08;;;;;;;37.77;26.80;;;;;;;-1.23;59.25;94168.38;5051535;28;20308;-79
2024/01/15 04:15:34;;;;;;;37.80;25.10;;;;;;;-1.10;58.87;94168.34;5045927;28;20280;-79
2024/01/15 04:18:00;;;;;;;38.90;26.43;;;;;;;-1.24;59.29;94165.88;5052606;28;20213;-79
2024/01/15 04:20:26;;;;;;;39.40;25.93;;;;;;;-1.13;58.71;94166.81;5053009;28;20323;-79
2024/01/15 04:22:52;;;;;;;39.67;27.80;;;;;;;-1.42;59.71;94171.31;5052460;28;20253;-79
2024/01/15 04:25:17;;;;;;;38.47;25.97;;;;;;;-1.41;59.94;94167.81;5051505;28;20213;-78
2024/01/15 04:27:43;;;;;;;34.37;25.90;;;;;;;-1.25;59.26;94167.66;5051693;28;20221;-78
2024/01/15 04:30:08;;;;;;;37.20;26.03;;;;;;;-1.15;59.06;94170.41;5052522;28;20236;-78
2024/01/15 04:32:34;;;;;;;43.73;27.30;;;;;;;-1.39;59.54;94163.41;5051623;28;20228;-79
2024/01/15 04:34:59;;;;;;;38.17;24.83;;;;;;;-1.38;59.74;94167.63;5042048;28;20181;-79
2024/01/15 04:37:25;;;;;;;35.83;25.67;;;;;;;-1.30;59.73;94169.69;5066590;28;20222;-79
2024/01/15 04:39:52;;;;;;;43.40;27.03;;;;;;;-1.16;59.22;94161.03;5051047;28;20305;-79
2024/01/15 04:42:18;;;;;;;39.90;27.37;;;;;;;-1.19;59.44;94171.56;5051264;28;20229;-79
2024/01/15 04:44:43;;;;;;;40.13;26.53;;;;;;;-1.15;59.28;94170.41;5052656;28;20229;-79
2024/01/15 04:47:09;;;;;;;38.77;23.33;;;;;;;-1.15;59.05;94167.84;5053518;28;20205;-78
2024/01/15 04:49:34;;;;;;;36.83;27.10;;;;;;;-1.27;59.53;94151.44;5052629;28;20252;-79
2024/01/15 04:51:59;;;;;;;34.27;22.37;;;;;;;-1.33;59.87;94157.00;5053100;28;20287;-77
2024/01/15 04:54:25;;;;;;;37.50;23.33;;;;;;;-1.27;59.59;94150.63;5053740;28;20236;-78
2024/01/15 04:56:50;;;;;;;34.93;21.87;;;;;;;-1.06;58.99;94158.69;5038775;28;20301;-77
2024/01/15 04:59:16;;;;;;;36.57;24.17;;;;;;;-1.11;59.10;94151.25;5065221;28;20186;-77
2024/01/15 05:01:42;;;;;;;34.50;23.57;;;;;;;-1.22;59.49;94144.22;5070729;28;20221;-78
2024/01/15 05:04:08;;;;;;;38.20;23.83;;;;;;;-1.11;59.07;94143.50;5049518;28;20225;-76
2024/01/15 05:06:33;;;;;;;37.60;24.80;;;;;;;-1.14;59.41;94151.44;5052156;28;20225;-76
2024/01/15 05:08:59;;;;;;;38.47;22.93;;;;;;;-1.16;59.32;94146.38;5048342;28;20221;-77
2024/01/15 05:11:24;;;;;;;34.90;23.20;;;;;;;-1.18;59.57;94140.50;5051752;28;20189;-78
2024/01/15 05:13:50;;;;;;;36.87;23.90;;;;;;;-1.08;59.36;94135.56;5047788;28;20177;-79
2024/01/15 05:16:15;;;;;;;33.67;22.70;;;;;;;-1.06;59.35;94130.28;5051333;28;20221;-77
2024/01/15 05:18:41;;;;;;;37.57;21.63;;;;;;;-1.12;59.42;94132.34;5052406;28;20237;-77
2024/01/15 05:21:06;;;;;;;37.63;22.83;;;;;;;-0.97;58.87;94125.31;5050725;28;20239;-77
2024/01/15 05:23:32;;;;;;;34.37;22.67;;;;;;;-1.09;59.08;94130.50;5049501;28;20260;-77
2024/01/15 05:25:57;;;;;;;38.60;22.80;;;;;;;-1.11;59.19;94149.47;5052964;28;20219;-78
2024/01/15 05:28:22;;;;;;;36.63;24.70;;;;;;;-1.41;59.73;94134.31;5042201;28;20272;-79
2024/01/15 05:30:50;;;;;;;37.83;22.67;;;;;;;-1.31;59.72;94134.53;5044125;28;20222;-75
2024/01/15 05:33:16;;;;;;;38.27;23.53;;;;;;;-1.40;59.94;94125.63;5049080;28;20217;-74
2024/01/15 05:35:41;;;;;;;39.40;23.57;;;;;;;-1.36;59.98;94111.63;5049350;28;20220;-76
2024/01/15 05:38:06;;;;;;;40.57;25.57;;;;;;;-1.27;59.78;94135.13;5049426;28;20189;-75
2024/01/15 05:40:32;;;;;;;36.90;26.43;;;;;;;-1.49;60.21;94123.66;5043038;28;20221;-74
2024/01/15 05:42:57;;;;;;;42.97;29.50;;;;;;;-1.53;60.18;94148.00;5046576;28;20225;-74
2024/01/15 05:45:23;;;;;;;36.07;27.27;;;;;;;-1.67;60.55;94117.97;5048272;28;20214;-76
2024/01/15 05:47:48;;;;;;;40.40;28.40;;;;;;;-1.49;60.18;94121.09;5048117;28;20221;-77
2024/01/15 05:50:13;;;;;;;41.77;26.47;;;;;;;-1.47;60.21;94128.72;5046369;28;20189;-75
2024/01/15 05:52:39;;;;;;;43.17;28.40;;;;;;;-1.36;60.26;94110.78;5048677;28;20215;-75
2024/01/15 05:55:04;;;;;;;41.07;29.70;;;;;;;-1.34;60.04;94108.91;5064544;28;20255;-75
2024/01/15 05:57:30;;;;;;;42.53;29.17;;;;;;;-1.62;61.06;94104.78;5050966;28;20221;-75
2024/01/15 05:59:56;;;;;;;41.93;29.10;;;;;;;-1.47;60.64;94103.78;5051706;28;20218;-77
2024/01/15 06:02:21;;;;;;;42.97;30.57;;;;;;;-1.48;60.74;94119.34;5051570;28;20212;-75
2024/01/15 06:04:46;;;;;;;49.67;34.60;;;;;;;-1.42;61.14;94121.50;5051638;28;20196;-75
2024/01/15 06:07:12;;;;;;;46.63;32.73;;;;;;;-1.42;60.96;94117.16;5049810;28;20209;-76
2024/01/15 06:09:38;;;;;;;48.80;32.67;;;;;;;-1.19;60.48;94130.28;5066710;28;20240;-77
2024/01/15 06:12:04;;;;;;;45.83;33.40;;;;;;;-1.08;60.08;94135.56;5045888;28;20220;-76
2024/01/15 06:14:30;;;;;;;47.83;29.97;;;;;;;-0.99;60.13;94122.03;5033392;28;20193;-76
2024/01/15 06:16:55;;;;;;;49.30;30.23;;;;;;;-1.16;60.28;94109.44;5052707;28;20239;-75
2024/01/15 06:19:21;;;;;;;48.87;28.63;;;;;;;-1.34;60.73;94109.75;5049746;28;20251;-74
2024/01/15 06:21:46;;;;;;;52.20;36.67;;;;;;;-1.23;60.85;94116.78;5038475;28;20238;-75
2024/01/15 06:24:13;;;;;;;50.97;30.57;;;;;;;-0.95;60.29;94112.31;5058149;28;20218;-76
2024/01/15 06:26:38;;;;;;;50.13;31.97;;;;;;;-0.94;60.04;94109.63;5046550;28;20213;-74
2024/01/15 06:29:04;;;;;;;52.30;33.83;;;;;;;-0.92;59.79;94105.19;5051424;28;20209;-76
2024/01/15 06:31:29;;;;;;;52.80;33.03;;;;;;;-0.95;59.72;94105.41;5050499;28;20224;-76
2024/01/15 06:33:55;;;;;;;56.67;35.73;;;;;;;-0.84;59.71;94111.59;5050367;28;20275;-76
2024/01/15 06:36:21;;;;;;;56.80;35.00;;;;;;;-0.68;59.30;94125.09;5050656;28;20308;-75
2024/01/15 06:38:47;;;;;;;56.73;36.27;;;;;;;-0.85;59.77;94104.78;5052543;28;20298;-74
2024/01/15 06:41:12;;;;;;;59.17;36.30;;;;;;;-0.66;59.35;94097.41;5065899;28;20216;-74
2024/01/15 06:43:38;;;;;;;55.23;34.90;;;;;;;-0.66;59.30;94112.91;5051714;28;20185;-76
2024/01/15 06:46:03;;;;;;;62.30;36.47;;;;;;;-0.72;59.33;94097.84;5043410;28;20218;-76
2024/01/15 06:48:29;;;;;;;60.07;37.03;;;;;;;-0.54;59.18;94104.28;5037776;28;20229;-75
2024/01/15 06:50:54;;;;;;;62.10;39.57;;;;;;;-0.77;59.97;94118.81;5052920;28;20308;-74
2024/01/15 06:53:20;;;;;;;72.87;42.83;;;;;;;-0.81;60.00;94108.78;5050865;28;20186;-75
2024/01/15 06:55:46;;;;;;;72.17;40.67;;;;;;;-0.54;59.64;94119.78;5048733;28;20327;-76
2024/01/15 06:58:11;;;;;;;68.50;41.13;;;;;;;-0.56;59.48;94136.31;5053106;28;20226;-75
2024/01/15 07:00:37;;;;;;;66.03;40.47;;;;;;;-0.53;59.48;94102.56;5051455;28;20268;-74
2024/01/15 07:03:03;;;;;;;61.07;40.47;;;;;;;-0.52;59.69;94128.25;5053530;28;20214;-77
2024/01/15 07:05:30;;;;;;;72.93;42.50;;;;;;;-0.45;59.48;94118.34;5054882;28;20233;-80
2024/01/15 07:07:55;;;;;;;68.30;41.47;;;;;;;-0.51;59.76;94126.50;5067868;28;20186;-74
2024/01/15 07:10:21;;;;;;;70.10;42.70;;;;;;;-0.33;59.13;94130.38;5055652;28;20267;-80
2024/01/15 07:12:46;;;;;;;66.90;42.27;;;;;;;-0.30;59.05;94114.66;5054827;28;20218;-78
2024/01/15 07:15:11;;;;;;;70.73;42.63;;;;;;;-0.26;58.96;94129.00;5068001;28;20209;-73
2024/01/15 07:17:40;;;;;;;66.43;42.77;;;;;;;-0.38;59.34;94126.47;5069454;28;20226;-76
2024/01/15 07:20:09;;;;;;;68.33;43.67;;;;;;;-0.28;59.34;94124.88;5052292;28;20273;-74
2024/01/15 07:22:38;;;;;;;59.50;40.47;;;;;;;-0.26;59.63;94130.78;5071266;28;20232;-78
2024/01/15 07:25:04;;;;;;;65.67;40.97;;;;;;;-0.11;59.37;94129.66;5053049;28;20285;-79
2024/01/15 07:27:31;;;;;;;60.50;38.87;;;;;;;-0.11;59.00;94093.50;5044940;28;20218;-79
2024/01/15 07:29:57;;;;;;;65.57;41.17;;;;;;;-0.04;59.35;94111.97;5046560;28;20290;-75
2024/01/15 07:32:22;;;;;;;64.17;41.13;;;;;;;-0.06;59.46;94113.84;5051866;28;20182;-77
2024/01/15 07:34:49;;;;;;;64.50;41.10;;;;;;;-0.04;59.30;94102.47;5054816;28;20311;-74
2024/01/15 07:37:14;;;;;;;66.43;40.53;;;;;;;0.08;59.12;94095.59;5051711;28;20753;-74
2024/01/15 07:39:40;;;;;;;62.33;42.07;;;;;;;0.20;58.97;94111.97;5050442;28;20300;-76
2024/01/15 07:42:13;;;;;;;65.37;40.27;;;;;;;0.30;58.71;94117.31;5050494;28;20225;-74
2024/01/15 07:44:38;;;;;;;60.77;38.10;;;;;;;0.40;57.82;94113.94;5051135;28;20241;-74
2024/01/15 07:47:04;;;;;;;63.97;40.27;;;;;;;0.39;58.37;94112.25;5050221;28;20344;-73
2024/01/15 07:49:30;;;;;;;61.67;37.97;;;;;;;0.35;58.44;94128.13;5050295;28;20351;-76
2024/01/15 07:51:55;;;;;;;56.90;35.90;;;;;;;0.40;57.84;94120.84;5043325;28;20218;-76
2024/01/15 07:54:20;;;;;;;53.97;37.33;;;;;;;0.44;57.66;94117.91;5053473;28;20221;-77
2024/01/15 07:56:59;;;;;;;52.77;33.77;;;;;;;0.50;57.83;94115.81;5051692;28;20237;-75
2024/01/15 07:59:25;;;;;;;46.80;30.30;;;;;;;0.60;57.01;94114.22;5052340;28;20189;-75
2024/01/15 08:01:52;;;;;;;47.27;30.60;;;;;;;0.72;56.67;94094.34;5067997;28;20284;-75
2024/01/15 08:04:18;;;;;;;42.20;29.67;;;;;;;0.74;56.52;94100.25;5049634;28;20270;-73
2024/01/15 08:06:44;;;;;;;45.90;27.70;;;;;;;0.76;56.23;94093.19;5049767;28;20240;-74
2024/01/15 08:09:10;;;;;;;41.67;29.40;;;;;;;0.82;56.37;94088.38;5051070;28;20244;-73
2024/01/15 08:11:36;;;;;;;42.57;29.77;;;;;;;0.82;56.60;94090.94;5049605;28;20250;-72
2024/01/15 08:14:02;;;;;;;42.47;28.63;;;;;;;0.74;56.56;94098.47;5050708;28;20189;-73
2024/01/15 08:16:27;;;;;;;38.93;26.70;;;;;;;0.84;56.27;94094.25;5051447;28;20344;-72
2024/01/15 08:18:56;;;;;;;43.23;28.70;;;;;;;0.84;56.62;94098.63;5051077;28;20217;-74
2024/01/15 08:21:22;;;;;;;41.03;27.33;;;;;;;0.92;56.36;94113.56;5051860;28;20789;-72
2024/01/15 08:23:47;;;;;;;40.00;28.03;;;;;;;0.90;56.06;94116.25;5051879;28;20213;-68
2024/01/15 08:26:13;;;;;;;35.83;26.60;;;;;;;0.97;55.86;94108.88;5051899;28;20227;-69
2024/01/15 08:28:38;;;;;;;38.10;26.63;;;;;;;1.02;55.64;94117.13;5052280;28;20193;-69
2024/01/15 08:31:03;;;;;;;38.70;26.07;;;;;;;1.03;55.62;94113.56;5049935;28;20205;-69
2024/01/15 08:33:29;;;;;;;35.67;24.33;;;;;;;1.05;55.49;94096.16;5049389;28;20233;-70
2024/01/15 08:35:54;;;;;;;41.87;27.07;;;;;;;1.05;55.73;94089.22;5067366;28;20220;-69
2024/01/15 08:38:20;;;;;;;42.30;27.00;;;;;;;1.06;55.84;94082.28;5048403;28;20193;-71
2024/01/15 08:40:46;;;;;;;37.43;26.83;;;;;;;1.18;55.79;94070.97;5048398;28;20209;-74
2024/01/15 08:43:11;;;;;;;40.03;25.67;;;;;;;1.22;55.50;94087.09;5046764;28;20292;-73
2024/01/15 08:45:37;;;;;;;38.97;27.83;;;;;;;1.33;55.69;94082.72;5050225;28;20218;-72
2024/01/15 08:48:03;;;;;;;38.33;26.07;;;;;;;1.44;54.91;94073.31;5048593;28;20210;-75
2024/01/15 08:50:29;;;;;;;36.07;25.87;;;;;;;1.48;54.29;94067.78;5051431;28;20173;-75
2024/01/15 08:52:55;;;;;;;39.70;27.97;;;;;;;1.30;55.31;94058.84;5052839;28;20236;-74
2024/01/15 08:55:22;;;;;;;40.00;26.43;;;;;;;1.33;55.64;94064.59;5030181;28;20225;-77
2024/01/15 08:57:48;;;;;;;44.70;27.37;;;;;;;1.59;55.36;94082.47;5029126;28;20258;-70
2024/01/15 09:00:14;;;;;;;42.90;28.97;;;;;;;1.68;54.81;94073.13;5046829;28;20218;-75
2024/01/15 09:02:39;;;;;;;40.67;29.17;;;;;;;1.70;54.60;94064.31;5030983;28;20214;-74
2024/01/15 09:05:05;;;;;;;38.93;26.50;;;;;;;1.68;54.01;94060.19;5030279;28;20190;-75
2024/01/15 09:07:30;;;;;;;37.57;26.47;;;;;;;1.74;53.98;94037.22;5031135;28;20305;-76
2024/01/15 09:09:56;;;;;;;42.27;28.30;;;;;;;1.70;54.05;94034.97;5042386;28;20226;-78
2024/01/15 09:12:22;;;;;;;45.30;29.43;;;;;;;1.68;54.15;94040.28;5030074;28;20301;-74
2024/01/15 09:14:47;;;;;;;46.60;29.20;;;;;;;1.69;53.74;94010.03;5031018;28;20210;-73
2024/01/15 09:17:13;;;;;;;42.30;29.03;;;;;;;1.74;54.11;94020.84;5023519;28;20186;-74
2024/01/15 09:19:42;;;;;;;44.27;29.50;;;;;;;1.76;53.71;94003.38;5031483;28;20242;-74
2024/01/15 09:22:08;;;;;;;42.03;27.20;;;;;;;1.75;53.87;93992.19;5029742;28;20222;-74
2024/01/15 09:24:33;;;;;;;40.13;28.10;;;;;;;1.64;54.03;94005.19;5044321;28;20215;-73
2024/01/15 09:26:59;;;;;;;37.20;26.00;;;;;;;1.55;53.77;93985.19;5029100;28;20214;-73
2024/01/15 09:29:24;;;;;;;44.63;30.03;;;;;;;1.63;54.11;93997.53;5044709;28;20193;-68
2024/01/15 09:31:50;;;;;;;47.50;29.47;;;;;;;1.68;53.74;93985.84;5028465;28;20189;-70
2024/01/15 09:34:16;;;;;;;47.43;28.83;;;;;;;1.64;53.70;93992.25;5028735;28;20218;-71
2024/01/15 09:36:42;;;;;;;43.57;27.60;;;;;;;1.57;53.44;93985.91;5024216;28;20332;-80
2024/01/15 09:39:08;;;;;;;41.93;28.23;;;;;;;1.72;53.21;93984.66;5030577;28;20305;-75
2024/01/15 09:41:37;;;;;;;47.30;29.30;;;;;;;1.67;53.39;93984.22;5031582;28;20233;-75
2024/01/15 09:44:07;;;;;;;44.60;29.43;;;;;;;1.64;53.51;93979.28;5031582;28;20189;-76
2024/01/15 09:46:34;;;;;;;44.77;29.13;;;;;;;1.69;53.78;93984.91;5031433;28;20222;-73
2024/01/15 09:49:01;;;;;;;43.17;30.63;;;;;;;1.70;53.76;93963.22;5029881;28;20214;-73
2024/01/15 09:51:30;;;;;;;45.80;31.23;;;;;;;1.69;53.93;93953.81;5031528;28;20221;-73
2024/01/15 09:53:57;;;;;;;54.97;34.97;;;;;;;1.80;53.93;93944.34;5030509;28;20224;-72
2024/01/15 09:56:23;;;;;;;67.77;44.23;;;;;;;1.86;54.02;93931.72;5027196;28;20179;-76
2024/01/15 09:58:49;;;;;;;64.33;44.80;;;;;;;1.84;54.10;93932.78;5032573;28;20190;-74
2024/01/15 10:01:17;;;;;;;57.53;40.83;;;;;;;1.92;54.33;93932.97;5046959;28;20229;-75
2024/01/15 10:03:42;;;;;;;48.50;34.50;;;;;;;1.92;53.57;93936.38;5052493;28;20217;-73
2024/01/15 10:06:09;;;;;;;49.23;33.10;;;;;;;1.84;53.28;93906.84;5038317;28;20305;-72
2024/01/15 10:08:36;;;;;;;44.47;32.37;;;;;;;1.80;53.23;93952.13;5064280;28;20296;-75
2024/01/15 10:11:04;;;;;;;50.83;30.83;;;;;;;1.88;52.99;93932.41;5031077;28;20170;-75
2024/01/15 10:13:30;;;;;;;45.37;31.03;;;;;;;1.92;53.24;93935.56;5049501;28;20308;-74
2024/01/15 10:15:56;;;;;;;54.00;36.30;;;;;;;2.01;52.77;93916.66;5047871;28;20284;-75
2024/01/15 10:18:21;;;;;;;54.50;39.67;;;;;;;2.07;52.74;93910.16;5040047;28;20309;-74
2024/01/15 10:20:47;;;;;;;51.90;33.00;;;;;;;2.02;52.86;93920.09;5026802;28;20222;-71
2024/01/15 10:23:14;;;;;;;49.17;32.47;;;;;;;2.31;53.01;93887.34;5032809;28;20198;-70
2024/01/15 10:25:42;;;;;;;49.57;32.90;;;;;;;2.36;52.78;93892.16;5034578;28;20205;-74
2024/01/15 10:28:07;;;;;;;53.67;32.73;;;;;;;2.40;52.22;93894.34;5035114;28;20222;-75
2024/01/15 10:30:33;;;;;;;45.93;30.93;;;;;;;2.56;51.00;93895.63;5032673;28;20291;-74
2024/01/15 10:33:03;;;;;;;46.13;30.53;;;;;;;2.52;51.25;93858.75;5032776;28;20210;-75
2024/01/15 10:35:30;;;;;;;42.10;29.30;;;;;;;2.52;51.51;93881.28;5046866;28;20221;-74
2024/01/15 10:37:55;;;;;;;42.60;29.43;;;;;;;2.60;51.02;93858.91;5035154;28;20197;-76
2024/01/15 10:40:20;;;;;;;42.47;28.03;;;;;;;2.70;50.64;93889.25;5034282;28;20218;-77
2024/01/15 10:42:47;;;;;;;52.80;35.30;;;;;;;2.52;51.14;93869.13;5032494;28;20222;-77
2024/01/15 10:45:13;;;;;;;42.20;28.23;;;;;;;2.72;50.83;93877.78;5051362;28;20330;-74
2024/01/15 10:47:39;;;;;;;51.33;34.40;;;;;;;2.60;51.27;93881.47;5034065;28;20221;-77
2024/01/15 10:50:07;;;;;;;49.27;35.23;;;;;;;2.70;50.36;93858.09;5034265;28;20198;-75
2024/01/15 10:52:34;;;;;;;59.40;38.17;;;;;;;2.61;51.18;93870.94;5016187;28;20217;-72
2024/01/15 10:55:00;;;;;;;63.37;36.83;;;;;;;2.86;50.90;93861.84;5033063;28;20225;-74
2024/01/15 10:57:26;;;;;;;51.23;36.67;;;;;;;3.00;51.07;93834.69;5049846;28;20238;-74
2024/01/15 10:59:51;;;;;;;56.17;36.50;;;;;;;3.29;50.60;93863.28;5032038;28;20229;-73
2024/01/15 11:02:17;;;;;;;55.07;36.03;;;;;;;3.16;50.57;93864.50;5033245;28;20210;-73
2024/01/15 11:04:43;;;;;;;52.33;34.93;;;;;;;3.13;49.85;93829.22;5053621;28;20263;-73
2024/01/15 11:07:11;;;;;;;52.13;36.87;;;;;;;3.32;50.55;93859.59;5054659;28;20248;-73
2024/01/15 11:09:37;;;;;;;59.30;37.80;;;;;;;3.31;49.55;93831.94;5054084;28;20297;-72
2024/01/15 11:12:13;;;;;;;50.07;34.87;;;;;;;3.51;49.08;93837.97;5033750;28;20296;-73